Time;durP1;ratioP1;P1;durP2;ratioP2;P2;SDS_P1;SDS_P2;PMS_P1;PMS_P2;Temp;Humidity;BMP_temperature;BMP_pressure;BME280_temperature;BME280_humidity;BME280_pressure;Samples;Min_cycle;Max_cycle;Signal;HPM_P1;HPM_P2
2022/04/19 00:00:34;;;;;;;3.40;2.90;;;;;;;;;;5070535;28;20208;-54
2022/04/19 00:03:02;;;;;;;4.43;3.03;;;;;;;;;;5074065;28;20196;-54
2022/04/19 00:05:28;;;;;;;5.90;3.20;;;;;;;;;;5073559;28;20194;-54
2022/04/19 00:07:54;;;;;;;5.33;3.13;;;;;;;;;;5073648;28;20195;-55
2022/04/19 00:10:20;;;;;;;4.33;2.90;;;;;;;;;;5074038;28;20218;-54
2022/04/19 00:12:47;;;;;;;3.47;3.17;;;;;;;;;;5073792;28;20657;-54
2022/04/19 00:15:13;;;;;;;5.77;3.03;;;;;;;;;;5073816;28;20257;-57
2022/04/19 00:17:40;;;;;;;4.87;3.53;;;;;;;;;;5073848;28;20202;-56
2022/04/19 00:20:06;;;;;;;3.77;3.40;;;;;;;;;;5073690;28;20693;-56
2022/04/19 00:22:33;;;;;;;4.00;3.50;;;;;;;;;;5064551;28;20196;-56
2022/04/19 00:24:59;;;;;;;3.97;3.57;;;;;;;;;;5053383;28;20236;-55
2022/04/19 00:27:25;;;;;;;4.30;3.57;;;;;;;;;;5053423;28;20663;-56
2022/04/19 00:29:53;;;;;;;4.40;3.80;;;;;;;;;;5053594;28;20566;-56
2022/04/19 00:32:20;;;;;;;4.87;3.93;;;;;;;;;;5053382;28;20258;-56
2022/04/19 00:34:47;;;;;;;4.87;3.83;;;;;;;;;;5051848;28;20225;-56
2022/04/19 00:37:13;;;;;;;3.80;3.40;;;;;;;;;;5053501;28;20204;-56
2022/04/19 00:39:40;;;;;;;4.17;3.87;;;;;;;;;;5053192;28;20231;-56
2022/04/19 00:42:07;;;;;;;4.60;3.43;;;;;;;;;;5053059;28;20925;-56
2022/04/19 00:44:37;;;;;;;4.37;3.50;;;;;;;;;;5053117;28;20196;-56
2022/04/19 00:47:05;;;;;;;4.17;3.73;;;;;;;;;;5053068;28;20218;-56
2022/04/19 00:49:33;;;;;;;5.20;4.03;;;;;;;;;;5053257;28;20207;-56
2022/04/19 00:52:01;;;;;;;5.30;3.40;;;;;;;;;;5053189;28;20204;-56
2022/04/19 00:54:28;;;;;;;4.20;3.60;;;;;;;;;;5053048;28;20581;-56
2022/04/19 00:56:54;;;;;;;4.33;3.63;;;;;;;;;;5052794;28;20208;-56
2022/04/19 00:59:20;;;;;;;3.90;3.50;;;;;;;;;;5052613;28;20238;-56
2022/04/19 01:01:46;;;;;;;4.00;3.47;;;;;;;;;;5053000;28;20196;-56
2022/04/19 01:04:12;;;;;;;4.93;4.03;;;;;;;;;;5052813;28;20543;-56
2022/04/19 01:06:38;;;;;;;4.10;3.70;;;;;;;;;;5052775;28;20192;-56
2022/04/19 01:09:06;;;;;;;4.67;3.23;;;;;;;;;;5052779;28;20200;-56
2022/04/19 01:14:17;;;;;;;5.00;3.57;;;;;;;;;;5052734;28;20286;-55
2022/04/19 01:16:43;;;;;;;5.80;4.03;;;;;;;;;;5052810;28;20257;-56
2022/04/19 01:19:15;;;;;;;4.40;4.00;;;;;;;;;;5052598;28;20196;-56
2022/04/19 01:21:45;;;;;;;4.53;4.00;;;;;;;;;;5052396;28;20220;-56
2022/04/19 01:24:13;;;;;;;6.60;3.83;;;;;;;;;;5052435;28;20759;-56
2022/04/19 01:26:39;;;;;;;4.53;3.90;;;;;;;;;;5052338;28;20305;-55
2022/04/19 01:29:05;;;;;;;4.70;4.20;;;;;;;;;;5052371;28;20620;-55
2022/04/19 01:31:31;;;;;;;4.70;4.20;;;;;;;;;;5052527;28;20651;-55
2022/04/19 01:33:57;;;;;;;7.60;4.07;;;;;;;;;;5052186;28;20220;-56
2022/04/19 01:36:23;;;;;;;5.33;3.67;;;;;;;;;;5052313;28;20207;-55
2022/04/19 01:38:51;;;;;;;5.80;4.30;;;;;;;;;;5052386;28;20201;-56
2022/04/19 01:41:17;;;;;;;5.47;4.23;;;;;;;;;;5052131;28;20204;-56
2022/04/19 01:43:44;;;;;;;5.17;3.93;;;;;;;;;;5052136;28;20197;-55
2022/04/19 01:46:11;;;;;;;4.00;3.60;;;;;;;;;;5052084;28;20208;-57
2022/04/19 01:48:36;;;;;;;3.90;3.57;;;;;;;;;;5052089;28;20246;-57
2022/04/19 01:51:02;;;;;;;6.50;4.30;;;;;;;;;;5052114;28;20208;-57
2022/04/19 01:53:28;;;;;;;5.93;4.37;;;;;;;;;;5052126;28;20568;-56
2022/04/19 01:55:56;;;;;;;4.73;4.20;;;;;;;;;;5052050;28;20279;-56
2022/04/19 01:58:22;;;;;;;4.63;4.10;;;;;;;;;;5051849;28;20214;-56
2022/04/19 02:00:48;;;;;;;5.80;4.17;;;;;;;;;;5051930;28;20506;-55
2022/04/19 02:03:14;;;;;;;7.23;4.60;;;;;;;;;;5051925;28;20574;-55
2022/04/19 02:05:40;;;;;;;5.60;4.63;;;;;;;;;;5051932;28;20423;-55
2022/04/19 02:08:06;;;;;;;5.97;4.80;;;;;;;;;;5051792;28;20199;-55
2022/04/19 02:10:32;;;;;;;5.10;4.53;;;;;;;;;;5051802;28;20206;-56
2022/04/19 02:13:00;;;;;;;5.60;4.67;;;;;;;;;;5051779;28;20451;-55
2022/04/19 02:15:26;;;;;;;4.40;3.97;;;;;;;;;;5051414;28;20681;-55
2022/04/19 02:17:51;;;;;;;6.07;4.43;;;;;;;;;;5051766;28;20438;-55
2022/04/19 02:20:18;;;;;;;6.20;4.67;;;;;;;;;;5051885;28;20254;-55
2022/04/19 02:22:45;;;;;;;6.30;4.70;;;;;;;;;;5051970;28;20279;-55
2022/04/19 02:25:12;;;;;;;6.60;4.77;;;;;;;;;;5051443;28;20482;-55
2022/04/19 02:27:39;;;;;;;5.33;4.00;;;;;;;;;;5051745;28;20431;-55
2022/04/19 02:30:13;;;;;;;6.90;4.43;;;;;;;;;;5051591;28;20196;-55
2022/04/19 02:32:39;;;;;;;5.67;4.13;;;;;;;;;;5051913;28;20438;-55
2022/04/19 02:35:05;;;;;;;5.10;4.07;;;;;;;;;;5051616;28;20964;-55
2022/04/19 02:37:32;;;;;;;5.00;4.50;;;;;;;;;;5051828;28;20204;-55
2022/04/19 02:39:58;;;;;;;5.87;4.80;;;;;;;;;;5051672;28;20500;-55
2022/04/19 02:42:24;;;;;;;6.87;4.93;;;;;;;;;;5051499;28;20802;-55
2022/04/19 02:44:50;;;;;;;6.17;5.07;;;;;;;;;;5052247;28;20228;-55
2022/04/19 02:47:18;;;;;;;4.80;4.30;;;;;;;;;;5055478;28;20253;-55
2022/04/19 02:49:47;;;;;;;5.10;4.60;;;;;;;;;;5055451;28;20208;-55
2022/04/19 02:52:13;;;;;;;5.77;4.70;;;;;;;;;;5055430;28;20430;-55
2022/04/19 02:54:39;;;;;;;5.57;4.40;;;;;;;;;;5055397;28;20466;-55
2022/04/19 02:57:05;;;;;;;6.23;5.53;;;;;;;;;;5055087;28;20462;-56
2022/04/19 02:59:31;;;;;;;6.30;4.90;;;;;;;;;;5055447;28;20193;-56
2022/04/19 03:01:57;;;;;;;5.17;4.63;;;;;;;;;;5055274;28;20516;-56
2022/04/19 03:04:24;;;;;;;5.83;4.67;;;;;;;;;;5055245;28;20522;-56
2022/04/19 03:06:50;;;;;;;6.23;5.23;;;;;;;;;;5055146;28;20218;-56
2022/04/19 03:09:16;;;;;;;5.53;4.90;;;;;;;;;;5055029;28;20488;-56
2022/04/19 03:11:42;;;;;;;7.13;5.27;;;;;;;;;;5054828;28;20278;-55
2022/04/19 03:14:10;;;;;;;5.70;4.87;;;;;;;;;;5054758;28;20570;-56
2022/04/19 03:16:36;;;;;;;9.13;5.37;;;;;;;;;;5054741;28;20793;-56
2022/04/19 03:19:02;;;;;;;6.10;4.83;;;;;;;;;;5054830;28;20439;-56
2022/04/19 03:21:29;;;;;;;5.93;5.17;;;;;;;;;;5054891;28;20607;-56
2022/04/19 03:29:25;;;;;;;6.90;5.23;;;;;;;;;;5054616;28;20829;-60
2022/04/19 03:31:51;;;;;;;6.87;5.40;;;;;;;;;;5054542;28;20929;-55
2022/04/19 03:34:18;;;;;;;7.77;5.23;;;;;;;;;;5054476;28;20486;-56
2022/04/19 03:36:45;;;;;;;7.07;5.50;;;;;;;;;;5054696;28;20193;-56
2022/04/19 03:39:11;;;;;;;6.57;5.30;;;;;;;;;;5054463;28;20817;-56
2022/04/19 03:41:37;;;;;;;5.37;4.87;;;;;;;;;;5054508;28;20450;-56
2022/04/19 03:44:03;;;;;;;5.83;5.23;;;;;;;;;;5054354;28;20200;-56
2022/04/19 03:46:29;;;;;;;6.37;5.30;;;;;;;;;;5054401;28;20605;-56
2022/04/19 03:48:56;;;;;;;7.87;5.67;;;;;;;;;;5054330;28;20427;-56
2022/04/19 03:51:22;;;;;;;7.20;5.37;;;;;;;;;;5054423;28;20367;-56
2022/04/19 03:53:49;;;;;;;7.47;5.57;;;;;;;;;;5052548;28;20806;-57
2022/04/19 03:56:15;;;;;;;6.67;5.30;;;;;;;;;;5054112;28;20533;-56
2022/04/19 03:58:41;;;;;;;7.00;5.40;;;;;;;;;;5054226;28;20466;-56
2022/04/19 04:01:08;;;;;;;6.70;5.80;;;;;;;;;;5054040;28;20454;-56
2022/04/19 04:03:34;;;;;;;5.80;5.20;;;;;;;;;;5052198;28;20724;-56
2022/04/19 04:06:00;;;;;;;6.90;4.70;;;;;;;;;;5053973;28;20522;-56
2022/04/19 04:08:26;;;;;;;8.03;5.57;;;;;;;;;;5054028;28;20192;-56
2022/04/19 04:10:54;;;;;;;7.33;5.60;;;;;;;;;;5053925;28;20957;-56
2022/04/19 04:13:20;;;;;;;6.83;5.07;;;;;;;;;;5053825;28;20829;-56
2022/04/19 04:15:46;;;;;;;7.97;5.73;;;;;;;;;;5053875;28;20532;-56
2022/04/19 04:18:12;;;;;;;6.33;5.43;;;;;;;;;;5053739;28;20204;-56
2022/04/19 04:20:38;;;;;;;6.67;5.40;;;;;;;;;;5053745;28;20883;-56
2022/04/19 04:23:04;;;;;;;5.67;5.07;;;;;;;;;;5053562;28;20200;-56
2022/04/19 04:25:30;;;;;;;6.43;5.30;;;;;;;;;;5053665;28;20240;-56
2022/04/19 04:27:57;;;;;;;7.07;5.87;;;;;;;;;;5053539;28;20438;-56
2022/04/19 04:30:23;;;;;;;6.40;5.23;;;;;;;;;;5053397;28;20817;-58
2022/04/19 04:32:50;;;;;;;7.03;6.10;;;;;;;;;;5053533;28;20442;-57
2022/04/19 04:35:16;;;;;;;5.77;5.17;;;;;;;;;;5053277;28;20208;-56
2022/04/19 04:37:42;;;;;;;7.03;5.30;;;;;;;;;;5053518;28;20526;-56
2022/04/19 04:40:08;;;;;;;6.27;4.97;;;;;;;;;;5053043;28;20200;-56
2022/04/19 04:42:34;;;;;;;7.70;5.67;;;;;;;;;;5053063;28;20435;-56
2022/04/19 04:45:02;;;;;;;5.87;5.10;;;;;;;;;;5053223;28;20435;-56
2022/04/19 04:50:13;;;;;;;6.93;5.30;;;;;;;;;;5053132;28;21374;-56
2022/04/19 04:52:39;;;;;;;5.53;4.70;;;;;;;;;;5053109;28;20431;-55
2022/04/19 04:55:07;;;;;;;5.57;4.67;;;;;;;;;;5052784;28;20477;-56
2022/04/19 04:57:33;;;;;;;5.77;4.80;;;;;;;;;;5053058;28;20200;-56
2022/04/19 04:59:59;;;;;;;8.10;5.43;;;;;;;;;;5052944;28;20805;-56
2022/04/19 05:02:26;;;;;;;9.37;5.43;;;;;;;;;;5052856;28;20552;-56
2022/04/19 05:04:52;;;;;;;8.23;5.10;;;;;;;;;;5052927;28;20196;-56
2022/04/19 05:07:18;;;;;;;6.83;4.90;;;;;;;;;;5052304;28;20451;-56
2022/04/19 05:09:44;;;;;;;5.40;4.90;;;;;;;;;;5052758;28;20435;-55
2022/04/19 05:12:11;;;;;;;7.33;4.70;;;;;;;;;;5052653;28;20453;-56
2022/04/19 05:14:37;;;;;;;6.30;4.93;;;;;;;;;;5052687;28;20224;-56
2022/04/19 05:17:03;;;;;;;5.57;4.73;;;;;;;;;;5052338;28;20496;-56
2022/04/19 05:19:30;;;;;;;7.00;4.77;;;;;;;;;;5052763;28;20290;-55
2022/04/19 05:21:56;;;;;;;6.60;4.50;;;;;;;;;;5052600;28;20442;-56
2022/04/19 05:24:22;;;;;;;4.87;4.37;;;;;;;;;;5052130;28;20459;-55
2022/04/19 05:26:48;;;;;;;7.17;4.63;;;;;;;;;;5052499;28;20435;-56
2022/04/19 05:29:14;;;;;;;4.57;4.00;;;;;;;;;;5052408;28;20659;-56
2022/04/19 05:31:40;;;;;;;5.90;4.13;;;;;;;;;;5052342;28;20221;-55
2022/04/19 05:34:06;;;;;;;4.90;4.17;;;;;;;;;;5052101;28;20470;-56
2022/04/19 05:36:35;;;;;;;5.57;4.30;;;;;;;;;;5052224;28;20314;-56
2022/04/19 05:39:01;;;;;;;4.67;4.17;;;;;;;;;;5052293;28;20216;-56
2022/04/19 05:41:27;;;;;;;7.03;4.63;;;;;;;;;;5052381;28;20200;-56
2022/04/19 05:43:53;;;;;;;4.87;4.10;;;;;;;;;;5052108;28;20663;-56
2022/04/19 05:46:20;;;;;;;5.80;4.07;;;;;;;;;;5050319;28;20206;-56
2022/04/19 05:48:46;;;;;;;5.97;4.53;;;;;;;;;;5050409;28;20875;-56
2022/04/19 05:51:12;;;;;;;4.37;3.97;;;;;;;;;;5056925;28;20235;-56
2022/04/19 05:53:39;;;;;;;6.00;3.93;;;;;;;;;;5072119;28;20211;-56
2022/04/19 05:56:06;;;;;;;5.60;4.07;;;;;;;;;;5071686;28;20654;-59
2022/04/19 05:58:32;;;;;;;4.37;3.57;;;;;;;;;;5072138;28;20200;-56
2022/04/19 06:00:57;;;;;;;4.63;3.60;;;;;;;;;;5072029;28;20534;-56
2022/04/19 06:06:08;;;;;;;5.93;3.30;;;;;;;;;;5071908;28;20217;-56
2022/04/19 06:08:34;;;;;;;4.90;3.60;;;;;;;;;;5071902;28;20191;-56
2022/04/19 06:11:02;;;;;;;3.70;3.30;;;;;;;;;;5071638;28;20199;-56
2022/04/19 06:13:28;;;;;;;5.07;3.40;;;;;;;;;;5071684;28;20249;-56
2022/04/19 06:15:54;;;;;;;4.70;3.30;;;;;;;;;;5071522;28;20227;-56
2022/04/19 06:18:20;;;;;;;6.30;3.20;;;;;;;;;;5071667;28;20200;-57
2022/04/19 06:20:46;;;;;;;3.10;2.80;;;;;;;;;;5074210;28;20257;-56
2022/04/19 06:23:12;;;;;;;3.33;3.03;;;;;;;;;;5075756;28;20281;-56
2022/04/19 06:25:38;;;;;;;3.50;3.00;;;;;;;;;;5075564;28;20231;-56
2022/04/19 06:28:05;;;;;;;4.83;2.80;;;;;;;;;;5075519;28;20222;-56
2022/04/19 06:30:31;;;;;;;2.60;2.40;;;;;;;;;;5072364;28;20204;-57
2022/04/19 06:32:57;;;;;;;3.80;3.00;;;;;;;;;;5072484;28;20206;-56
2022/04/19 06:35:23;;;;;;;2.73;2.37;;;;;;;;;;5075586;28;20230;-55
2022/04/19 06:37:49;;;;;;;3.87;2.50;;;;;;;;;;5075591;28;20195;-58
2022/04/19 06:40:15;;;;;;;7.00;2.43;;;;;;;;;;5075603;28;20246;-56
2022/04/19 06:42:42;;;;;;;3.90;2.10;;;;;;;;;;5075555;28;20677;-56
2022/04/19 06:45:11;;;;;;;2.63;2.13;;;;;;;;;;5075230;28;20717;-55
2022/04/19 06:47:37;;;;;;;3.40;2.37;;;;;;;;;;5075270;28;20284;-56
2022/04/19 06:50:04;;;;;;;2.40;2.20;;;;;;;;;;5075253;28;20207;-56
2022/04/19 06:52:30;;;;;;;2.43;1.90;;;;;;;;;;5075414;28;20203;-56
2022/04/19 06:54:56;;;;;;;2.00;1.80;;;;;;;;;;5075166;28;20227;-56
2022/04/19 06:57:22;;;;;;;2.30;2.10;;;;;;;;;;5075300;28;20206;-56
2022/04/19 06:59:48;;;;;;;2.30;2.00;;;;;;;;;;5075307;28;20226;-56
2022/04/19 07:02:16;;;;;;;3.73;2.00;;;;;;;;;;5075257;28;20263;-55
2022/04/19 07:04:43;;;;;;;1.80;1.70;;;;;;;;;;5075242;28;20199;-56
2022/04/19 07:07:09;;;;;;;2.17;1.80;;;;;;;;;;5075023;28;20287;-56
2022/04/19 07:09:35;;;;;;;5.33;1.90;;;;;;;;;;5074977;28;20677;-56
2022/04/19 07:12:02;;;;;;;2.27;2.03;;;;;;;;;;5074938;28;20208;-56
2022/04/19 07:14:28;;;;;;;1.70;1.60;;;;;;;;;;5074937;28;20247;-56
2022/04/19 07:16:54;;;;;;;1.83;1.60;;;;;;;;;;5074926;28;20192;-56
2022/04/19 07:19:22;;;;;;;1.70;1.60;;;;;;;;;;5074692;28;20635;-57
2022/04/19 07:27:20;;;;;;;2.43;1.60;;;;;;;;;;5074443;28;20198;-56
2022/04/19 07:29:46;;;;;;;2.73;1.70;;;;;;;;;;5074866;28;20191;-56
2022/04/19 07:32:12;;;;;;;2.20;1.77;;;;;;;;;;5074106;28;20685;-55
2022/04/19 07:34:39;;;;;;;2.63;1.80;;;;;;;;;;5074422;28;20235;-57
2022/04/19 07:37:05;;;;;;;2.20;1.67;;;;;;;;;;5072939;28;20217;-57
2022/04/19 07:39:32;;;;;;;2.20;2.00;;;;;;;;;;5074694;28;20196;-56
2022/04/19 07:42:00;;;;;;;2.20;2.00;;;;;;;;;;5074529;28;20219;-55
2022/04/19 07:44:29;;;;;;;2.10;1.90;;;;;;;;;;5074664;28;20207;-56
2022/04/19 07:46:55;;;;;;;2.70;1.73;;;;;;;;;;5074379;28;20206;-54
2022/04/19 07:49:21;;;;;;;2.97;1.83;;;;;;;;;;5074235;28;20290;-54
2022/04/19 07:51:49;;;;;;;1.60;1.50;;;;;;;;;;5074373;28;20199;-56
2022/04/19 07:54:15;;;;;;;2.37;1.40;;;;;;;;;;5074220;28;20224;-55
2022/04/19 07:56:41;;;;;;;3.00;1.50;;;;;;;;;;5074119;28;20282;-54
2022/04/19 07:59:07;;;;;;;2.07;1.60;;;;;;;;;;5073921;28;20195;-55
2022/04/19 08:01:34;;;;;;;2.93;1.60;;;;;;;;;;5074232;28;20198;-55
2022/04/19 08:04:00;;;;;;;1.90;1.70;;;;;;;;;;5074176;28;20539;-55
2022/04/19 08:06:28;;;;;;;1.70;1.60;;;;;;;;;;5074012;28;20204;-54
2022/04/19 08:08:55;;;;;;;2.27;1.43;;;;;;;;;;5073834;28;20693;-55
2022/04/19 08:11:21;;;;;;;1.80;1.70;;;;;;;;;;5066878;28;20211;-55
2022/04/19 08:13:47;;;;;;;2.67;1.60;;;;;;;;;;5053708;28;20287;-54
2022/04/19 08:16:13;;;;;;;2.20;1.70;;;;;;;;;;5053892;28;20232;-55
2022/04/19 08:18:40;;;;;;;1.70;1.60;;;;;;;;;;5053666;28;20201;-54
2022/04/19 08:21:06;;;;;;;3.13;1.80;;;;;;;;;;5053474;28;20207;-55
2022/04/19 08:23:32;;;;;;;2.43;1.60;;;;;;;;;;5053541;28;20537;-55
2022/04/19 08:25:59;;;;;;;2.27;1.80;;;;;;;;;;5053442;28;20322;-55
2022/04/19 08:28:25;;;;;;;3.93;1.80;;;;;;;;;;5053602;28;20208;-55
2022/04/19 08:30:51;;;;;;;2.23;1.57;;;;;;;;;;5053526;28;20208;-55
2022/04/19 08:33:17;;;;;;;2.27;1.83;;;;;;;;;;5053424;28;20219;-55
2022/04/19 08:35:43;;;;;;;3.27;2.10;;;;;;;;;;5053585;28;20346;-55
2022/04/19 08:38:10;;;;;;;2.60;2.10;;;;;;;;;;5053337;28;20558;-55
2022/04/19 08:40:36;;;;;;;2.60;2.20;;;;;;;;;;5053451;28;20222;-55
2022/04/19 08:43:03;;;;;;;2.87;2.30;;;;;;;;;;5058925;28;20215;-54
2022/04/19 08:45:29;;;;;;;2.47;2.03;;;;;;;;;;5073362;28;20199;-55
2022/04/19 08:47:58;;;;;;;2.47;2.10;;;;;;;;;;5073209;28;20291;-54
2022/04/19 08:50:25;;;;;;;2.83;2.30;;;;;;;;;;5073173;28;20572;-53
2022/04/19 08:57:29;;;;;;;2.40;2.20;;;;;;;;;;5073244;28;20279;-51
2022/04/19 08:58:23;;;;;;;3.23;1.90;;;;;;;;;;5072988;28;20253;-52
2022/04/19 09:00:49;;;;;;;3.93;1.83;;;;;;;;;;5073194;28;20199;-51
2022/04/19 09:03:15;;;;;;;4.93;2.30;;;;;;;;;;5072555;28;20662;-50
2022/04/19 09:05:49;;;;;;;1.87;1.73;;;;;;;;;;5072901;28;20290;-50
2022/04/19 09:08:15;;;;;;;4.50;2.03;;;;;;;;;;5072410;28;20195;-51
2022/04/19 09:10:41;;;;;;;2.27;1.80;;;;;;;;;;5072578;28;20197;-52
2022/04/19 09:13:08;;;;;;;2.20;1.80;;;;;;;;;;5072758;28;20197;-50
2022/04/19 09:15:37;;;;;;;1.90;1.80;;;;;;;;;;5072528;28;20228;-52
2022/04/19 09:18:04;;;;;;;2.60;1.93;;;;;;;;;;5072343;28;20682;-54
2022/04/19 09:20:31;;;;;;;1.93;1.70;;;;;;;;;;5072302;28;20208;-51
2022/04/19 09:23:01;;;;;;;1.90;1.60;;;;;;;;;;5072364;28;20206;-50
2022/04/19 09:25:27;;;;;;;2.17;1.90;;;;;;;;;;5071829;28;20316;-50
2022/04/19 09:27:57;;;;;;;2.13;1.60;;;;;;;;;;5072379;28;20317;-51
2022/04/19 09:30:23;;;;;;;2.07;1.80;;;;;;;;;;5072145;28;20204;-50
2022/04/19 09:33:01;;;;;;;5.03;1.53;;;;;;;;;;5071310;28;20553;-51
2022/04/19 09:35:28;;;;;;;1.63;1.53;;;;;;;;;;5071984;28;20234;-51
2022/04/19 09:37:55;;;;;;;1.50;1.40;;;;;;;;;;5072166;28;20230;-50
2022/04/19 09:40:27;;;;;;;2.37;1.77;;;;;;;;;;5072019;28;20623;-51
2022/04/19 09:42:54;;;;;;;2.13;1.60;;;;;;;;;;5071890;28;20203;-51
2022/04/19 09:45:20;;;;;;;1.50;1.40;;;;;;;;;;5071908;28;20235;-51
2022/04/19 09:47:50;;;;;;;2.00;1.40;;;;;;;;;;5072109;28;20226;-50
2022/04/19 09:50:17;;;;;;;3.63;1.43;;;;;;;;;;5071934;28;20202;-51
2022/04/19 09:52:50;;;;;;;1.80;1.30;;;;;;;;;;5071939;28;20803;-52
2022/04/19 09:55:16;;;;;;;2.23;1.30;;;;;;;;;;5071333;28;20225;-52
2022/04/19 09:57:47;;;;;;;2.23;1.53;;;;;;;;;;5071946;28;20209;-52
2022/04/19 10:00:14;;;;;;;1.80;1.40;;;;;;;;;;5071753;28;20199;-52
2022/04/19 10:08:13;;;;;;;1.50;1.30;;;;;;;;;;5071571;28;20217;-52
2022/04/19 10:10:40;;;;;;;1.20;1.10;;;;;;;;;;5071707;28;20684;-52
2022/04/19 10:13:06;;;;;;;1.73;1.40;;;;;;;;;;5071725;28;20280;-52
2022/04/19 10:15:32;;;;;;;1.60;1.50;;;;;;;;;;5071884;28;20219;-52
2022/04/19 10:17:59;;;;;;;1.83;1.20;;;;;;;;;;5071862;28;20206;-52
2022/04/19 10:20:32;;;;;;;1.30;1.10;;;;;;;;;;5071391;28;20208;-50
2022/04/19 10:23:01;;;;;;;1.60;1.20;;;;;;;;;;5071915;28;20669;-49
2022/04/19 10:25:34;;;;;;;1.83;1.27;;;;;;;;;;5071180;28;20238;-52
2022/04/19 10:28:03;;;;;;;1.43;1.00;;;;;;;;;;5071805;28;20260;-52
2022/04/19 10:30:32;;;;;;;1.60;1.10;;;;;;;;;;5071419;28;20206;-50
2022/04/19 10:32:58;;;;;;;2.00;1.20;;;;;;;;;;5071298;28;20638;-52
2022/04/19 10:35:24;;;;;;;2.07;1.13;;;;;;;;;;5071325;28;20751;-52
2022/04/19 10:38:05;;;;;;;1.33;0.90;;;;;;;;;;5071327;28;20235;-52
2022/04/19 10:40:46;;;;;;;1.73;1.17;;;;;;;;;;5071310;28;20195;-54
2022/04/19 10:43:14;;;;;;;1.00;1.00;;;;;;;;;;5070999;28;20199;-52
2022/04/19 10:45:40;;;;;;;1.10;1.00;;;;;;;;;;5069276;28;20195;-53
2022/04/19 10:48:07;;;;;;;1.43;1.20;;;;;;;;;;5069484;28;20206;-53
2022/04/19 10:50:34;;;;;;;3.90;1.13;;;;;;;;;;5071288;28;20723;-54
2022/04/19 10:53:02;;;;;;;2.33;1.20;;;;;;;;;;5071420;28;20203;-53
2022/04/19 10:55:29;;;;;;;2.70;1.10;;;;;;;;;;5071125;28;20277;-54
2022/04/19 10:58:06;;;;;;;2.17;1.10;;;;;;;;;;5071329;28;20198;-53
2022/04/19 11:00:37;;;;;;;1.30;1.07;;;;;;;;;;5071455;28;20206;-53
2022/04/19 11:03:05;;;;;;;1.17;1.07;;;;;;;;;;5071303;28;20207;-52
2022/04/19 11:05:41;;;;;;;1.20;0.90;;;;;;;;;;5071728;28;20196;-52
2022/04/19 11:08:19;;;;;;;3.43;1.10;;;;;;;;;;5074976;28;20498;-52
2022/04/19 11:10:45;;;;;;;0.70;0.70;;;;;;;;;;5075045;28;20218;-52
2022/04/19 11:13:14;;;;;;;0.97;0.90;;;;;;;;;;5074898;28;20607;-52
2022/04/19 11:15:42;;;;;;;1.10;1.00;;;;;;;;;;5074900;28;20254;-51
2022/04/19 11:18:24;;;;;;;3.50;1.30;;;;;;;;;;5074777;28;20199;-51
2022/04/19 11:20:51;;;;;;;2.13;1.00;;;;;;;;;;5074136;28;20196;-53
2022/04/19 11:23:18;;;;;;;3.33;1.00;;;;;;;;;;5054679;28;20195;-53
2022/04/19 11:25:45;;;;;;;1.20;1.10;;;;;;;;;;5054470;28;20233;-52
2022/04/19 11:28:19;;;;;;;1.00;0.90;;;;;;;;;;5054583;28;20215;-54
2022/04/19 11:31:07;;;;;;;4.37;1.03;;;;;;;;;;5054720;28;20641;-56
2022/04/19 11:33:34;;;;;;;5.40;1.10;;;;;;;;;;5054323;28;20203;-54
2022/04/19 11:36:01;;;;;;;1.83;0.90;;;;;;;;;;5054452;28;20254;-54
2022/04/19 11:38:28;;;;;;;1.50;1.10;;;;;;;;;;5054495;28;20197;-53
2022/04/19 11:46:44;;;;;;;4.57;1.13;;;;;;;;;;5054138;28;20222;-50
2022/04/19 11:49:10;;;;;;;0.97;0.97;;;;;;;;;;5054009;28;20205;-50
2022/04/19 11:51:37;;;;;;;0.73;0.73;;;;;;;;;;5054260;28;20298;-49
2022/04/19 11:54:04;;;;;;;1.43;1.30;;;;;;;;;;5053963;28;20223;-58
2022/04/19 11:56:30;;;;;;;1.80;1.10;;;;;;;;;;5054199;28;20232;-50
2022/04/19 11:58:58;;;;;;;2.27;1.10;;;;;;;;;;5061831;28;20204;-49
2022/04/19 12:01:24;;;;;;;2.53;1.10;;;;;;;;;;5056702;28;20196;-51
2022/04/19 12:03:52;;;;;;;0.97;0.93;;;;;;;;;;5054259;28;20242;-52
2022/04/19 12:06:18;;;;;;;14.70;13.33;;;;;;;;;;5054177;28;20227;-51
2022/04/19 12:08:46;;;;;;;17.00;13.80;;;;;;;;;;5054186;28;20247;-52
2022/04/19 12:11:16;;;;;;;3.40;1.70;;;;;;;;;;5053496;28;20200;-52
2022/04/19 12:13:42;;;;;;;0.73;0.73;;;;;;;;;;5053799;28;20205;-52
2022/04/19 12:16:26;;;;;;;1.27;1.10;;;;;;;;;;5053422;28;20620;-52
2022/04/19 12:18:54;;;;;;;4.33;1.20;;;;;;;;;;5052397;28;20457;-51
2022/04/19 12:21:33;;;;;;;1.40;0.73;;;;;;;;;;5053261;28;20227;-51
2022/04/19 12:23:59;;;;;;;3.00;0.80;;;;;;;;;;5053486;28;20228;-52
2022/04/19 12:26:26;;;;;;;0.43;0.43;;;;;;;;;;5053029;28;20311;-53
2022/04/19 12:28:52;;;;;;;2.40;0.93;;;;;;;;;;5053388;28;20271;-52
2022/04/19 12:31:32;;;;;;;1.43;1.10;;;;;;;;;;5053148;28;20606;-52
2022/04/19 12:33:59;;;;;;;1.13;1.03;;;;;;;;;;5053322;28;20202;-52
2022/04/19 12:36:26;;;;;;;0.73;0.73;;;;;;;;;;5053049;28;20227;-52
2022/04/19 12:39:00;;;;;;;0.77;0.77;;;;;;;;;;5053174;28;20200;-52
2022/04/19 12:41:33;;;;;;;0.80;0.80;;;;;;;;;;5053019;28;20200;-52
2022/04/19 12:44:00;;;;;;;2.70;0.80;;;;;;;;;;5053407;28;20271;-53
2022/04/19 12:46:26;;;;;;;1.73;0.70;;;;;;;;;;5052821;28;20662;-53
2022/04/19 12:48:53;;;;;;;1.07;0.70;;;;;;;;;;5052985;28;20287;-52
2022/04/19 12:51:24;;;;;;;0.60;0.60;;;;;;;;;;5052781;28;20284;-52
2022/04/19 12:54:03;;;;;;;1.30;0.90;;;;;;;;;;5052955;28;20205;-54
2022/04/19 12:56:29;;;;;;;2.67;0.87;;;;;;;;;;5052789;28;20626;-54
2022/04/19 12:58:55;;;;;;;1.07;0.80;;;;;;;;;;5052852;28;20280;-52
2022/04/19 13:01:21;;;;;;;1.13;0.80;;;;;;;;;;5052628;28;20280;-52
2022/04/19 13:03:47;;;;;;;3.90;0.90;;;;;;;;;;5052812;28;20197;-53
2022/04/19 13:14:28;;;;;;;2.93;2.73;;;;;;;;;;5052467;28;20678;-53
2022/04/19 13:16:54;;;;;;;6.50;6.00;;;;;;;;;;5052401;28;20213;-52
2022/04/19 13:19:20;;;;;;;1.60;0.73;;;;;;;;;;5052196;28;20254;-53
2022/04/19 13:21:47;;;;;;;1.80;0.70;;;;;;;;;;5052387;28;20203;-52
2022/04/19 13:24:14;;;;;;;5.33;0.93;;;;;;;;;;5052254;28;20232;-52
2022/04/19 13:26:40;;;;;;;2.33;0.97;;;;;;;;;;5052014;28;20319;-53
2022/04/19 13:29:06;;;;;;;1.23;0.77;;;;;;;;;;5051855;28;20196;-52
2022/04/19 13:31:32;;;;;;;0.70;0.70;;;;;;;;;;5052274;28;20199;-52
2022/04/19 13:33:58;;;;;;;1.77;1.07;;;;;;;;;;5052228;28;20204;-53
2022/04/19 13:36:24;;;;;;;1.10;1.00;;;;;;;;;;5051942;28;20239;-52
2022/04/19 13:38:50;;;;;;;0.73;0.70;;;;;;;;;;5051994;28;20198;-52
2022/04/19 13:41:18;;;;;;;0.80;0.80;;;;;;;;;;5052176;28;20679;-52
2022/04/19 13:43:45;;;;;;;0.83;0.80;;;;;;;;;;5052007;28;20548;-52
2022/04/19 13:46:11;;;;;;;1.07;0.80;;;;;;;;;;5051925;28;20193;-52
2022/04/19 13:48:37;;;;;;;0.77;0.77;;;;;;;;;;5051981;28;20193;-52
2022/04/19 13:51:03;;;;;;;2.80;0.90;;;;;;;;;;5051816;28;20197;-53
2022/04/19 13:53:31;;;;;;;0.80;0.77;;;;;;;;;;5051795;28;20259;-53
2022/04/19 13:55:58;;;;;;;1.33;0.90;;;;;;;;;;5051796;28;20236;-53
2022/04/19 13:58:25;;;;;;;1.00;0.90;;;;;;;;;;5051733;28;20198;-53
2022/04/19 14:00:51;;;;;;;2.00;0.90;;;;;;;;;;5051679;28;20207;-52
2022/04/19 14:03:17;;;;;;;2.20;0.80;;;;;;;;;;5051629;28;20275;-53
2022/04/19 14:05:44;;;;;;;1.00;0.67;;;;;;;;;;5051926;28;20196;-52
2022/04/19 14:08:10;;;;;;;1.47;1.00;;;;;;;;;;5056464;28;20196;-53
2022/04/19 14:10:36;;;;;;;2.10;0.80;;;;;;;;;;5051795;28;20298;-51
2022/04/19 14:13:02;;;;;;;0.70;0.70;;;;;;;;;;5051836;28;20615;-52
2022/04/19 14:15:30;;;;;;;1.10;0.80;;;;;;;;;;5051683;28;20225;-51
2022/04/19 14:17:57;;;;;;;0.80;0.80;;;;;;;;;;5050450;28;20208;-50
2022/04/19 14:20:23;;;;;;;1.20;0.80;;;;;;;;;;5051416;28;20207;-50
2022/04/19 14:22:49;;;;;;;1.87;0.80;;;;;;;;;;5051556;28;20565;-50
2022/04/19 14:25:15;;;;;;;1.73;0.77;;;;;;;;;;5051194;28;20294;-51
2022/04/19 14:27:41;;;;;;;1.17;0.93;;;;;;;;;;5051423;28;20733;-50
2022/04/19 14:35:39;;;;;;;0.70;0.70;;;;;;;;;;5051285;28;20262;-51
2022/04/19 14:38:05;;;;;;;2.80;0.93;;;;;;;;;;5051326;28;20184;-50
2022/04/19 14:40:32;;;;;;;5.73;0.90;;;;;;;;;;5051490;28;20658;-51
2022/04/19 14:42:58;;;;;;;0.70;0.70;;;;;;;;;;5055585;28;20243;-50
2022/04/19 14:45:24;;;;;;;2.37;0.70;;;;;;;;;;5055229;28;20189;-50
2022/04/19 14:47:50;;;;;;;3.20;0.80;;;;;;;;;;5055168;28;20733;-50
2022/04/19 14:50:17;;;;;;;0.77;0.63;;;;;;;;;;5055426;28;20250;-50
2022/04/19 14:52:47;;;;;;;1.20;0.80;;;;;;;;;;5064786;28;20329;-50
2022/04/19 14:55:14;;;;;;;2.13;0.73;;;;;;;;;;5075108;28;20219;-50
2022/04/19 14:57:40;;;;;;;1.57;0.80;;;;;;;;;;5075540;28;20206;-50
2022/04/19 15:00:07;;;;;;;2.27;0.80;;;;;;;;;;5075238;28;20249;-50
2022/04/19 15:02:33;;;;;;;1.23;0.80;;;;;;;;;;5075236;28;20306;-50
2022/04/19 15:05:04;;;;;;;2.63;1.10;;;;;;;;;;5075236;28;20208;-51
2022/04/19 15:07:31;;;;;;;1.20;1.10;;;;;;;;;;5075216;28;20226;-50
2022/04/19 15:09:57;;;;;;;3.70;1.20;;;;;;;;;;5075279;28;20211;-50
2022/04/19 15:12:24;;;;;;;1.07;1.00;;;;;;;;;;5074997;28;20199;-50
2022/04/19 15:14:50;;;;;;;1.30;0.90;;;;;;;;;;5074917;28;20696;-51
2022/04/19 15:17:16;;;;;;;0.50;0.50;;;;;;;;;;5074782;28;20285;-51
2022/04/19 15:19:42;;;;;;;1.47;0.97;;;;;;;;;;5074996;28;20199;-52
2022/04/19 15:22:09;;;;;;;2.90;1.10;;;;;;;;;;5074947;28;20685;-50
2022/04/19 15:24:37;;;;;;;1.20;1.10;;;;;;;;;;5074378;28;20303;-50
2022/04/19 15:27:03;;;;;;;1.50;0.90;;;;;;;;;;5074849;28;20288;-51
2022/04/19 15:29:29;;;;;;;1.57;0.80;;;;;;;;;;5074740;28;20203;-51